createdAt,value
2022-12-01T00:02:21.528Z,98956.38
2022-12-01T00:05:13.624Z,98956.38
2022-12-01T00:08:12.588Z,98961.53
2022-12-01T00:11:10.097Z,98959.00
2022-12-01T00:13:58.170Z,98953.66
2022-12-01T00:16:46.522Z,98948.31
2022-12-01T00:19:34.828Z,98951.03
2022-12-01T00:22:22.817Z,98954.50
2022-12-01T00:25:10.718Z,98959.84
2022-12-01T00:28:01.035Z,98963.44
2022-12-01T00:30:49.536Z,98961.72
2022-12-01T00:33:37.858Z,98953.94
2022-12-01T00:36:26.841Z,98952.25
2022-12-01T00:39:16.139Z,98957.41
2022-12-01T00:42:05.476Z,98954.78
2022-12-01T00:44:58.380Z,98960.03
2022-12-01T00:47:46.314Z,98961.72
2022-12-01T00:50:38.632Z,98967.91
2022-12-01T00:53:28.262Z,98962.66
2022-12-01T00:56:16.250Z,98963.59
2022-12-01T00:59:06.708Z,98975.78
2022-12-01T01:01:56.175Z,98968.84
2022-12-01T01:04:43.979Z,98964.34
2022-12-01T01:07:32.575Z,98970.53
2022-12-01T01:10:20.762Z,98974.94
2022-12-01T01:13:09.366Z,98966.97
2022-12-01T01:16:04.428Z,98967.91
2022-12-01T01:18:54.724Z,98968.84
2022-12-01T01:21:42.546Z,98973.16
2022-12-01T01:24:30.991Z,98978.31
2022-12-01T01:27:23.626Z,98970.53
2022-12-01T01:30:13.195Z,98979.28
2022-12-01T01:33:01.674Z,98979.28
2022-12-01T01:35:55.005Z,98980.94
2022-12-01T01:38:43.455Z,98977.47
2022-12-01T01:41:31.525Z,98986.19
2022-12-01T01:44:51.292Z,98975.78
2022-12-01T01:47:44.879Z,98986.09
2022-12-01T01:50:33.408Z,98978.22
2022-12-01T01:53:23.617Z,98980.84
2022-12-01T01:56:12.151Z,98979.00
2022-12-01T01:59:01.458Z,98980.69
2022-12-01T02:01:56.211Z,98983.41
2022-12-01T02:04:48.806Z,98986.78
2022-12-01T02:07:36.962Z,98984.25
2022-12-01T02:10:35.870Z,98979.81
2022-12-01T02:13:32.706Z,98980.84
2022-12-01T02:16:28.122Z,98977.19
2022-12-01T02:19:39.809Z,98980.69
2022-12-01T02:22:43.880Z,98969.31
2022-12-01T02:25:49.969Z,98975.41
2022-12-01T02:28:57.940Z,98971.94
2022-12-01T02:31:55.985Z,98966.59
2022-12-01T02:34:54.347Z,98968.50
2022-12-01T02:37:50.131Z,98968.50
2022-12-01T02:40:44.159Z,98972.81
2022-12-01T02:43:39.659Z,98973.75
2022-12-01T02:46:34.287Z,98978.06
2022-12-01T02:49:30.882Z,98973.75
2022-12-01T02:52:22.279Z,98977.09
2022-12-01T02:55:10.522Z,98969.22
2022-12-01T02:58:01.381Z,98965.78
2022-12-01T03:01:10.732Z,98956.19
2022-12-01T03:04:20.685Z,98950.84
2022-12-01T03:07:27.222Z,98957.81
2022-12-01T03:10:27.870Z,98958.81
2022-12-01T03:13:30.282Z,98954.41
2022-12-01T03:16:32.619Z,98950.03
2022-12-01T03:19:28.738Z,98954.25
2022-12-01T03:22:27.330Z,98945.59
2022-12-01T03:25:18.369Z,98941.09
2022-12-01T03:28:21.085Z,98947.22
2022-12-01T03:31:30.583Z,98948.03
2022-12-01T03:34:24.450Z,98949.75
2022-12-01T03:37:19.488Z,98955.81
2022-12-01T03:40:13.013Z,98955.81
2022-12-01T03:43:03.465Z,98945.22
2022-12-01T03:45:58.004Z,98939.16
2022-12-01T03:48:48.723Z,98944.41
2022-12-01T03:51:45.140Z,98948.81
2022-12-01T03:54:46.713Z,98949.66
2022-12-01T03:57:46.983Z,98948.81
2022-12-01T04:00:41.602Z,98947.94
2022-12-01T04:03:30.303Z,98949.66
2022-12-01T04:06:20.134Z,98948.81
2022-12-01T04:09:07.999Z,98953.19
2022-12-01T04:12:13.602Z,98952.38
2022-12-01T04:15:13.704Z,98951.53
2022-12-01T04:18:07.448Z,98951.44
2022-12-01T04:21:06.164Z,98952.38
2022-12-01T04:24:14.201Z,98952.38
2022-12-01T04:27:04.029Z,98953.19
2022-12-01T04:29:53.605Z,98943.56
2022-12-01T04:32:46.284Z,98947.94
2022-12-01T04:35:34.068Z,98945.31
2022-12-01T04:38:24.991Z,98945.31
2022-12-01T04:41:23.774Z,98943.56
2022-12-01T04:44:13.878Z,98944.50
2022-12-01T04:47:03.812Z,98942.69
2022-12-01T04:50:06.653Z,98942.88
2022-12-01T04:53:02.026Z,98949.84
2022-12-01T04:55:57.228Z,98934.91
2022-12-01T04:58:49.782Z,98945.41
2022-12-01T05:01:54.338Z,98945.41
2022-12-01T05:04:48.315Z,98947.22
2022-12-01T05:07:38.132Z,98952.38
2022-12-01T05:10:28.460Z,98957.63
2022-12-01T05:13:21.499Z,98955.00
2022-12-01T05:16:25.737Z,98958.44
2022-12-01T05:19:40.782Z,98957.63
2022-12-01T05:23:04.270Z,98955.91
2022-12-01T05:25:51.355Z,98955.00
2022-12-01T05:28:47.874Z,98962.88
2022-12-01T05:31:41.528Z,98943.72
2022-12-01T05:37:26.205Z,98953.28
2022-12-01T05:40:19.566Z,98954.25
2022-12-01T05:43:12.314Z,98949.06
2022-12-01T05:46:08.799Z,98952.56
2022-12-01T05:48:58.083Z,98929.03
2022-12-01T05:52:18.955Z,98932.47
2022-12-01T05:55:13.954Z,98921.22
2022-12-01T06:01:48.261Z,98935.09
2022-12-01T06:07:01.696Z,98945.69
2022-12-01T06:13:10.113Z,98943.06
2022-12-01T06:16:33.067Z,98946.63
2022-12-01T06:22:59.682Z,98950.13
2022-12-01T06:25:55.445Z,98950.13
2022-12-01T06:28:46.094Z,98949.25
2022-12-01T06:31:40.854Z,98957.13
2022-12-01T06:34:32.195Z,98954.59
2022-12-01T06:37:34.739Z,98952.94
2022-12-01T06:40:31.798Z,98956.47
2022-12-01T06:43:26.643Z,98959.09
2022-12-01T06:46:18.260Z,98965.28
2022-12-01T06:49:11.249Z,98968.78
2022-12-01T06:52:55.108Z,98966.97
2022-12-01T06:55:57.247Z,98966.97
2022-12-01T06:59:23.328Z,98967.06
2022-12-01T07:02:13.170Z,98960.03
2022-12-01T07:05:05.401Z,98963.53
2022-12-01T07:08:08.050Z,98970.34
2022-12-01T07:11:34.882Z,98969.41
2022-12-01T07:14:46.581Z,98979.00
2022-12-01T07:17:51.575Z,98975.41
2022-12-01T07:20:54.300Z,98972.81
2022-12-01T07:23:52.971Z,98973.75
2022-12-01T07:26:45.376Z,98971.03
2022-12-01T07:29:33.231Z,98974.47
2022-12-01T07:32:26.248Z,98971.84
2022-12-01T07:35:14.142Z,98980.50
2022-12-01T07:39:01.289Z,98983.88
2022-12-01T07:41:24.596Z,98981.16
2022-12-01T07:44:15.647Z,98987.25
2022-12-01T07:47:03.632Z,98988.94
2022-12-01T07:49:51.699Z,98982.75
2022-12-01T07:53:06.736Z,98988.81
2022-12-01T07:55:56.928Z,98984.44
2022-12-01T07:59:10.773Z,98981.72
2022-12-01T08:02:19.816Z,98974.69
2022-12-01T08:05:17.077Z,98985.00
2022-12-01T08:08:18.869Z,98982.28
2022-12-01T08:11:13.445Z,98983.97
2022-12-01T08:14:02.664Z,98982.94
2022-12-01T08:16:51.172Z,98981.06
2022-12-01T08:19:39.181Z,98980.88
2022-12-01T08:22:38.367Z,98973.72
2022-12-01T08:25:26.600Z,98978.81
2022-12-01T08:28:25.202Z,98981.25
2022-12-01T08:31:28.340Z,98972.34
2022-12-01T08:34:16.442Z,98980.03
2022-12-01T08:37:11.335Z,98976.38
2022-12-01T08:40:05.925Z,98977.88
2022-12-01T08:42:54.282Z,98979.34
2022-12-01T08:45:42.313Z,98979.16
2022-12-01T08:48:31.478Z,98978.97
2022-12-01T08:51:26.243Z,98985.75
2022-12-01T08:54:27.262Z,98982.94
2022-12-01T08:57:17.142Z,98981.78
2022-12-01T09:00:06.360Z,98984.22
2022-12-01T09:02:54.310Z,98991.94
2022-12-01T09:05:43.739Z,98987.31
2022-12-01T09:08:44.924Z,98994.91
2022-12-01T09:11:33.886Z,98996.38
2022-12-01T09:14:24.639Z,98996.19
2022-12-01T09:17:21.141Z,99005.31
2022-12-01T09:20:10.501Z,98997.97
2022-12-01T09:23:02.874Z,99007.22
2022-12-01T09:25:50.925Z,98999.06
2022-12-01T09:28:43.103Z,98998.66
2022-12-01T09:31:31.823Z,98999.94
2022-12-01T09:34:21.768Z,98992.41
2022-12-01T09:37:12.925Z,98998.97
2022-12-01T09:40:04.903Z,98989.63
2022-12-01T09:42:55.474Z,98992.50
2022-12-01T09:45:47.632Z,98985.78
2022-12-01T09:48:46.276Z,98983.47
2022-12-01T09:51:40.400Z,98982.84
2022-12-01T09:54:36.617Z,98978.75
2022-12-01T09:57:36.158Z,98979.94
2022-12-01T10:00:28.423Z,98974.00
2022-12-01T10:03:31.328Z,98968.00
2022-12-01T10:06:28.096Z,98962.00
2022-12-01T10:09:24.617Z,98959.69
2022-12-01T10:12:17.767Z,98959.75
2022-12-01T10:15:21.578Z,98952.88
2022-12-01T10:18:25.686Z,98954.03
2022-12-01T10:21:19.908Z,98950.53
2022-12-01T10:24:20.669Z,98945.44
2022-12-01T10:27:30.123Z,98935.09
2022-12-01T10:30:33.430Z,98936.19
2022-12-01T10:33:26.621Z,98931.09
2022-12-01T10:36:17.190Z,98924.19
2022-12-01T10:39:10.296Z,98917.59
2022-12-01T10:42:07.800Z,98914.06
2022-12-01T10:44:58.741Z,98906.28
2022-12-01T10:48:13.042Z,98911.50
2022-12-01T10:51:17.397Z,98914.88
2022-12-01T10:54:11.572Z,98912.88
2022-12-01T10:57:33.322Z,98907.97
2022-12-01T11:00:57.905Z,98907.72
2022-12-01T11:03:41.845Z,98903.84
2022-12-01T11:06:35.952Z,98905.28
2022-12-01T11:09:29.185Z,98897.31
2022-12-01T11:12:22.234Z,98902.16
2022-12-01T11:15:19.019Z,98900.06
2022-12-01T11:18:20.876Z,98894.94
2022-12-01T11:21:16.701Z,98896.63
2022-12-01T11:24:31.056Z,98898.59
2022-12-01T11:27:21.535Z,98887.97
2022-12-01T11:30:23.379Z,98882.47
2022-12-01T11:33:18.878Z,98884.63
2022-12-01T11:36:11.795Z,98878.78
2022-12-01T11:39:12.957Z,98877.72
2022-12-01T11:42:04.848Z,98876.94
2022-12-01T11:44:55.342Z,98874.56
2022-12-01T11:48:04.192Z,98869.84
2022-12-01T11:51:05.981Z,98861.84
2022-12-01T11:54:13.882Z,98862.53
2022-12-01T11:57:32.537Z,98855.44
2022-12-01T12:00:16.253Z,98849.41
2022-12-01T12:03:28.531Z,98850.25
2022-12-01T12:06:39.805Z,98853.59
2022-12-01T12:09:48.019Z,98848.28
2022-12-01T12:12:51.984Z,98845.50
2022-12-01T12:15:52.543Z,98830.56
2022-12-01T12:18:57.326Z,98837.41
2022-12-01T12:21:58.319Z,98840.78
2022-12-01T12:25:08.244Z,98835.72
2022-12-01T12:28:12.140Z,98831.97
2022-12-01T12:31:11.588Z,98827.59
2022-12-01T12:34:19.172Z,98826.22
2022-12-01T12:37:20.256Z,98834.03
2022-12-01T12:40:42.456Z,98826.06
2022-12-01T12:43:44.734Z,98825.94
2022-12-01T12:46:42.424Z,98823.41
2022-12-01T12:49:38.609Z,98826.78
2022-12-01T12:52:32.527Z,98822.47
2022-12-01T12:55:30.589Z,98826.34
2022-12-01T12:58:28.589Z,98827.91
2022-12-01T13:01:22.325Z,98825.66
2022-12-01T13:04:17.304Z,98822.28
2022-12-01T13:07:09.537Z,98821.41
2022-12-01T13:10:03.890Z,98815.81
2022-12-01T13:12:58.667Z,98814.97
2022-12-01T13:15:50.285Z,98820.69
2022-12-01T13:18:47.471Z,98812.41
2022-12-01T13:21:46.345Z,98822.47
2022-12-01T13:24:34.740Z,98814.91
2022-12-01T13:27:30.227Z,98816.00
2022-12-01T13:30:21.463Z,98815.69
2022-12-01T13:33:17.522Z,98808.66
2022-12-01T13:39:24.588Z,98810.03
2022-12-01T13:42:25.704Z,98807.19
2022-12-01T13:45:20.073Z,98805.78
2022-12-01T13:48:29.405Z,98808.13
2022-12-01T13:51:20.281Z,98801.75
2022-12-01T13:54:29.336Z,98799.78
2022-12-01T13:57:31.117Z,98796.91
2022-12-01T14:00:31.232Z,98800.19
2022-12-01T14:03:41.814Z,98801.56
2022-12-01T14:06:38.931Z,98803.03
2022-12-01T14:09:36.809Z,98800.31
2022-12-01T14:12:31.600Z,98803.31
2022-12-01T14:15:36.912Z,98799.38
2022-12-01T14:18:34.756Z,98806.16
2022-12-01T14:21:44.794Z,98801.47
2022-12-01T14:24:37.030Z,98813.41
2022-12-01T14:27:36.809Z,98811.38
2022-12-01T14:31:04.715Z,98807.44
2022-12-01T14:33:58.688Z,98806.50
2022-12-01T14:36:53.451Z,98812.28
2022-12-01T14:39:46.305Z,98805.81
2022-12-01T14:42:57.555Z,98807.97
2022-12-01T14:45:57.523Z,98812.78
2022-12-01T14:48:48.403Z,98808.00
2022-12-01T14:51:38.488Z,98803.22
2022-12-01T14:54:32.503Z,98803.56
2022-12-01T14:57:26.953Z,98806.56
2022-12-01T15:00:21.338Z,98806.19
2022-12-01T15:03:13.220Z,98799.72
2022-12-01T15:06:03.977Z,98801.06
2022-12-01T15:12:29.539Z,98809.81
2022-12-01T15:15:24.005Z,98810.41
2022-12-01T15:18:27.113Z,98812.69
2022-12-01T15:21:19.514Z,98806.50
2022-12-01T15:24:21.596Z,98813.00
2022-12-01T15:27:28.753Z,98809.16
2022-12-01T15:30:19.299Z,98819.19
2022-12-01T15:33:08.571Z,98820.28
2022-12-01T15:35:59.914Z,98823.28
2022-12-01T15:38:50.290Z,98821.59
2022-12-01T15:41:42.770Z,98826.13
2022-12-01T15:44:34.259Z,98825.78
2022-12-01T15:47:39.293Z,98817.22
2022-12-01T15:50:31.233Z,98814.72
2022-12-01T15:53:27.286Z,98817.34
2022-12-01T15:56:16.357Z,98821.28
2022-12-01T15:59:09.912Z,98818.78
2022-12-01T16:02:06.809Z,98821.53
2022-12-01T16:05:03.469Z,98830.63
2022-12-01T16:08:13.100Z,98814.06
2022-12-01T16:11:15.394Z,98821.38
2022-12-01T16:14:06.944Z,98818.81
2022-12-01T16:16:55.526Z,98818.81
2022-12-01T16:19:49.849Z,98825.81
2022-12-01T16:22:40.969Z,98821.81
2022-12-01T16:25:43.358Z,98818.31
2022-12-01T16:28:38.144Z,98817.91
2022-12-01T16:31:31.213Z,98821.84
2022-12-01T16:34:45.253Z,98823.56
2022-12-01T16:37:36.622Z,98826.19
2022-12-01T16:40:33.936Z,98832.41
2022-12-01T16:43:31.077Z,98832.41
2022-12-01T16:46:18.959Z,98836.97
2022-12-01T16:49:11.768Z,98843.38
2022-12-01T16:52:36.598Z,98842.56
2022-12-01T16:55:39.087Z,98841.81
2022-12-01T16:58:27.213Z,98845.53
2022-12-01T17:01:15.332Z,98836.88
2022-12-01T17:04:07.423Z,98840.69
2022-12-01T17:06:58.519Z,98847.16
2022-12-01T17:09:51.186Z,98850.63
2022-12-01T17:12:40.555Z,98848.09
2022-12-01T17:15:30.863Z,98849.28
2022-12-01T17:18:20.675Z,98851.91
2022-12-01T17:21:14.566Z,98840.50
2022-12-01T17:24:05.001Z,98839.78
2022-12-01T17:27:00.923Z,98843.47
2022-12-01T17:29:52.737Z,98844.22
2022-12-01T17:32:42.176Z,98842.75
2022-12-01T17:35:37.986Z,98835.81
2022-12-01T17:38:25.931Z,98833.41
2022-12-01T17:41:16.224Z,98834.22
2022-12-01T17:44:04.970Z,98831.81
2022-12-01T17:46:54.235Z,98835.50
2022-12-01T17:49:42.588Z,98842.56
2022-12-01T17:52:34.466Z,98845.19
2022-12-01T17:55:32.733Z,98841.97
2022-12-01T17:58:24.807Z,98843.84
2022-12-01T18:01:18.565Z,98842.19
2022-12-01T18:04:17.844Z,98841.22
2022-12-01T18:07:09.644Z,98843.84
2022-12-01T18:09:58.647Z,98844.69
2022-12-01T18:12:50.293Z,98846.69
2022-12-01T18:15:40.935Z,98846.69
2022-12-01T18:18:48.949Z,98846.91
2022-12-01T18:21:38.662Z,98851.47
2022-12-01T18:24:34.851Z,98863.69
2022-12-01T18:27:28.723Z,98855.78
2022-12-01T18:30:18.713Z,98856.00
2022-12-01T18:33:11.130Z,98858.72
2022-12-01T18:35:59.079Z,98861.38
2022-12-01T18:38:48.555Z,98866.75
2022-12-01T18:41:37.013Z,98865.06
2022-12-01T18:44:25.595Z,98865.06
2022-12-01T18:47:13.681Z,98866.09
2022-12-01T18:50:01.747Z,98866.09
2022-12-01T18:52:49.616Z,98863.56
2022-12-01T18:55:39.686Z,98863.56
2022-12-01T18:58:27.970Z,98866.31
2022-12-01T19:01:21.967Z,98866.31
2022-12-01T19:04:10.904Z,98863.06
2022-12-01T19:06:58.682Z,98857.81
2022-12-01T19:09:46.934Z,98858.66
2022-12-01T19:12:40.840Z,98853.41
2022-12-01T19:15:29.172Z,98853.72
2022-12-01T19:18:17.276Z,98853.72
2022-12-01T19:21:06.359Z,98849.25
2022-12-01T19:23:56.287Z,98856.44
2022-12-01T19:26:44.097Z,98857.28
2022-12-01T19:29:34.845Z,98852.00
2022-12-01T19:32:23.381Z,98850.34
2022-12-01T19:35:11.375Z,98849.47
2022-12-01T19:37:59.103Z,98850.34
2022-12-01T19:42:17.688Z,98846.03
2022-12-01T19:56:46.331Z,98861.28
2022-12-01T19:59:34.799Z,98865.72
2022-12-01T20:02:28.948Z,98859.63
2022-12-01T20:05:18.123Z,98858.75
2022-12-01T20:08:06.719Z,98855.53
2022-12-01T20:10:55.236Z,98858.16
2022-12-01T20:13:47.985Z,98857.41
2022-12-01T20:16:36.967Z,98856.66
2022-12-01T20:19:27.660Z,98858.56
2022-12-01T20:22:19.067Z,98871.00
2022-12-01T20:25:11.293Z,98856.03
2022-12-01T20:28:00.693Z,98857.94
2022-12-01T20:30:53.114Z,98860.56
2022-12-01T20:33:41.970Z,98857.06
2022-12-01T20:36:31.254Z,98859.19
2022-12-01T20:39:19.689Z,98865.19
2022-12-01T20:42:08.297Z,98853.94
2022-12-01T20:44:56.459Z,98852.97
2022-12-01T20:47:46.209Z,98860.03
2022-12-01T20:50:34.900Z,98856.69
2022-12-01T20:53:26.051Z,98857.53
2022-12-01T20:56:15.202Z,98859.50
2022-12-01T20:59:04.179Z,98864.88
2022-12-01T21:01:55.607Z,98855.31
2022-12-01T21:04:45.400Z,98862.47
2022-12-01T21:07:34.142Z,98859.81
2022-12-01T21:10:22.504Z,98854.56
2022-12-01T21:13:36.496Z,98854.56
2022-12-01T21:16:29.619Z,98856.34
2022-12-01T21:19:26.717Z,98859.06
2022-12-01T21:22:18.562Z,98855.53
2022-12-01T21:25:15.513Z,98856.44
2022-12-01T21:28:13.980Z,98852.13
2022-12-01T21:31:13.955Z,98854.78
2022-12-01T21:34:02.760Z,98860.03
2022-12-01T21:36:52.750Z,98857.41
2022-12-01T21:39:42.753Z,98856.56
2022-12-01T21:42:33.527Z,98854.97
2022-12-01T21:45:26.592Z,98854.13
2022-12-01T21:48:17.169Z,98856.84
2022-12-01T21:51:17.630Z,98853.50
2022-12-01T21:54:13.829Z,98848.25
2022-12-01T21:57:03.439Z,98847.50
2022-12-01T21:59:52.669Z,98849.31
2022-12-01T22:02:50.159Z,98843.41
2022-12-01T22:05:42.034Z,98841.72
2022-12-01T22:08:38.389Z,98848.13
2022-12-01T22:11:28.651Z,98842.84
2022-12-01T22:14:20.862Z,98842.84
2022-12-01T22:17:21.064Z,98840.22
2022-12-01T22:20:26.464Z,98841.28
2022-12-01T22:23:15.568Z,98835.16
2022-12-01T22:26:13.898Z,98837.91
2022-12-01T22:29:23.451Z,98833.81
2022-12-01T22:32:48.514Z,98828.63
2022-12-01T22:35:40.556Z,98837.50
2022-12-01T22:38:36.155Z,98832.22
2022-12-01T22:41:25.029Z,98823.59
2022-12-01T22:44:14.881Z,98823.59
2022-12-01T22:47:04.955Z,98816.00
2022-12-01T22:49:57.969Z,98823.19
2022-12-01T22:52:46.377Z,98828.44
2022-12-01T22:55:35.885Z,98818.94
2022-12-01T22:58:29.262Z,98829.47
2022-12-01T23:01:31.314Z,98827.78
2022-12-01T23:04:28.193Z,98821.69
2022-12-01T23:07:34.933Z,98820.84
2022-12-01T23:10:25.034Z,98821.81
2022-12-01T23:13:18.149Z,98825.34
2022-12-01T23:16:07.433Z,98820.94
2022-12-01T23:18:56.948Z,98822.72
2022-12-01T23:21:45.731Z,98819.38
2022-12-01T23:24:35.810Z,98816.00
2022-12-01T23:27:24.163Z,98816.00
2022-12-01T23:30:14.721Z,98808.97
2022-12-01T23:33:18.028Z,98805.47
2022-12-01T23:36:07.826Z,98810.94
2022-12-01T23:38:59.177Z,98806.94
2022-12-01T23:41:50.928Z,98812.19
2022-12-01T23:44:42.748Z,98810.38
2022-12-01T23:47:32.267Z,98798.09
2022-12-01T23:50:24.502Z,98799.88
2022-12-01T23:53:25.833Z,98793.78
2022-12-01T23:56:19.458Z,98793.69
2022-12-01T23:59:14.419Z,98791.56
